createdAt,value
2023-07-04T00:04:35.315Z,11.99162
2023-07-04T00:09:47.557Z,12.17104
2023-07-04T00:14:59.832Z,12.18402
2023-07-04T00:20:14.300Z,12.06169
2023-07-04T00:25:27.258Z,12.24576
2023-07-04T00:30:39.444Z,12.24742
2023-07-04T00:35:51.753Z,12.31631
2023-07-04T00:41:06.556Z,12.30519
2023-07-04T00:46:18.678Z,12.51807
2023-07-04T00:51:30.801Z,12.59097
2023-07-04T00:56:42.849Z,12.7067
2023-07-04T01:01:55.016Z,12.85069
2023-07-04T01:07:07.804Z,13.02547
2023-07-04T01:12:20.035Z,13.15361
2023-07-04T01:17:32.336Z,13.25653
2023-07-04T01:22:44.660Z,13.21446
2023-07-04T01:27:56.933Z,13.29092
2023-07-04T01:33:09.232Z,13.40685
2023-07-04T01:38:21.346Z,13.40569
2023-07-04T01:43:34.545Z,13.40627
2023-07-04T01:48:48.489Z,13.36987
2023-07-04T19:56:26.617Z,8.904633
2023-07-04T20:01:39.330Z,9.845291
2023-07-04T20:06:51.995Z,10.06128
2023-07-04T20:17:21.911Z,9.754211
2023-07-04T20:22:34.119Z,10.11282
2023-07-04T20:27:46.338Z,9.839767
2023-07-04T20:32:58.626Z,9.917664
2023-07-04T20:38:11.431Z,9.950485
2023-07-04T20:43:23.535Z,9.735092
2023-07-04T20:48:35.557Z,9.907547
2023-07-04T20:53:47.578Z,9.869263
2023-07-04T20:58:59.678Z,10.00476
2023-07-04T21:04:11.825Z,9.653107
2023-07-04T21:09:24.934Z,9.519974
2023-07-04T21:14:37.628Z,9.191025
2023-07-04T21:19:49.771Z,9.877258
2023-07-04T21:25:02.011Z,9.599731
2023-07-04T21:30:14.267Z,9.585327
2023-07-04T21:35:26.564Z,9.97998
2023-07-04T21:40:38.971Z,10.01323
2023-07-04T21:45:51.501Z,9.378723
2023-07-04T21:51:03.779Z,9.359894
2023-07-04T21:56:16.692Z,9.268784
2023-07-04T22:01:29.003Z,9.142563
2023-07-04T22:06:41.325Z,9.569
2023-07-04T22:11:54.448Z,9.13591
2023-07-04T22:17:08.349Z,9.296387
2023-07-04T22:22:21.887Z,9.122711
2023-07-04T22:27:33.995Z,9.027756
2023-07-04T22:32:46.263Z,9.155304
2023-07-04T22:37:58.533Z,9.252335
2023-07-04T22:48:28.526Z,8.848953
2023-07-04T22:53:40.848Z,8.101974
2023-07-04T22:58:53.610Z,8.8591
2023-07-04T23:04:05.848Z,9.032898
2023-07-04T23:09:18.100Z,8.250946
2023-07-04T23:14:31.841Z,9.5383
2023-07-04T23:19:44.057Z,9.342575
2023-07-04T23:24:56.218Z,8.861649
2023-07-04T23:30:08.438Z,10.15459
2023-07-04T23:35:21.632Z,9.309052
2023-07-04T23:45:51.736Z,10.26671
2023-07-04T23:51:05.009Z,10.03091
2023-07-04T23:56:26.454Z,9.964859
